createdAt,value
2016-11-14T00:00:38.398Z,-1.75
2016-11-14T00:01:48.749Z,-1.69
2016-11-14T00:02:58.881Z,-1.69
2016-11-14T00:04:08.567Z,-1.58
2016-11-14T00:05:18.289Z,-1.74
2016-11-14T00:06:28.013Z,-1.74
2016-11-14T00:07:38.012Z,-1.78
2016-11-14T00:08:48.369Z,-1.75
2016-11-14T00:09:58.723Z,-1.71
2016-11-14T00:11:07.892Z,-1.79
2016-11-14T00:12:17.892Z,-1.69
2016-11-14T00:13:27.593Z,-1.63
2016-11-14T00:14:37.630Z,-1.64
2016-11-14T00:15:47.683Z,-1.56
2016-11-14T00:16:57.373Z,-1.72
2016-11-14T00:18:06.463Z,-1.76
2016-11-14T00:19:16.253Z,-1.78
2016-11-14T00:20:26.331Z,-1.74
2016-11-14T00:21:36.647Z,-1.78
2016-11-14T00:22:46.345Z,-1.74
2016-11-14T00:23:56.364Z,-1.76
2016-11-14T00:25:06.736Z,-1.78
2016-11-14T00:26:17.256Z,-1.79
2016-11-14T00:27:27.254Z,-1.76
2016-11-14T00:28:37.270Z,-1.75
2016-11-14T00:29:47.319Z,-1.87
2016-11-14T00:30:57.411Z,-1.89
2016-11-14T00:32:07.709Z,-1.97
2016-11-14T00:33:17.450Z,-1.94
2016-11-14T00:34:27.524Z,-1.9
2016-11-14T00:35:37.205Z,-1.87
2016-11-14T00:36:47.202Z,-1.9
2016-11-14T00:37:56.927Z,-1.96
2016-11-14T00:39:06.919Z,-1.96
2016-11-14T00:40:16.909Z,-1.87
2016-11-14T00:41:26.916Z,-1.87
2016-11-14T00:42:36.283Z,-1.86
2016-11-14T00:43:45.967Z,-1.81
2016-11-14T00:44:56.373Z,-1.71
2016-11-14T00:46:06.395Z,-1.78
2016-11-14T00:47:16.101Z,-1.76
2016-11-14T00:48:25.784Z,-1.74
2016-11-14T00:49:35.525Z,-1.75
2016-11-14T00:50:45.840Z,-1.75
2016-11-14T00:51:55.540Z,-1.75
2016-11-14T00:53:05.532Z,-1.78
2016-11-14T00:54:15.907Z,-1.86
2016-11-14T00:55:25.601Z,-1.89
2016-11-14T00:56:35.320Z,-1.81
2016-11-14T00:57:44.678Z,-1.84
2016-11-14T00:58:54.985Z,-1.94
2016-11-14T01:00:04.379Z,-1.99
2016-11-14T01:01:14.654Z,-1.96
2016-11-14T01:02:24.678Z,-2
2016-11-14T01:03:34.778Z,-1.97
2016-11-14T01:04:44.764Z,-1.99
2016-11-14T01:05:54.465Z,-1.94
2016-11-14T01:07:04.152Z,-1.94
2016-11-14T01:08:13.969Z,-1.9
2016-11-14T01:09:23.989Z,-1.96
2016-11-14T01:10:33.999Z,-1.75
2016-11-14T01:11:43.717Z,-1.76
2016-11-14T01:12:54.093Z,-1.9
2016-11-14T01:14:04.400Z,-1.93
2016-11-14T01:15:14.173Z,-1.89
2016-11-14T01:16:24.266Z,-1.86
2016-11-14T01:17:33.958Z,-1.99
2016-11-14T01:18:44.266Z,-2
2016-11-14T01:19:54.062Z,-2.02
2016-11-14T01:21:03.119Z,-2.02
2016-11-14T01:22:12.818Z,-1.96
2016-11-14T01:23:22.689Z,-1.96
2016-11-14T01:24:32.403Z,-1.94
2016-11-14T01:25:42.447Z,-1.96
2016-11-14T01:26:51.929Z,-2.02
2016-11-14T01:28:02.055Z,-2
2016-11-14T01:29:12.358Z,-2.08
2016-11-14T01:30:22.057Z,-1.97
2016-11-14T01:31:32.377Z,-2.02
2016-11-14T01:32:42.418Z,-2.1
2016-11-14T01:33:52.535Z,-2.02
2016-11-14T01:35:02.294Z,-2.13
2016-11-14T01:36:11.995Z,-2.1
2016-11-14T01:37:21.998Z,-2.14
2016-11-14T01:38:32.080Z,-2.18
2016-11-14T01:39:42.096Z,-2.22
2016-11-14T01:40:52.118Z,-2.29
2016-11-14T01:42:01.538Z,-2.37
2016-11-14T01:43:11.537Z,-2.42
2016-11-14T01:44:21.870Z,-2.45
2016-11-14T01:45:31.896Z,-2.44
2016-11-14T01:46:42.588Z,-2.37
2016-11-14T01:47:52.596Z,-2.37
2016-11-14T01:49:02.328Z,-2.34
2016-11-14T01:50:12.390Z,-2.28
2016-11-14T01:51:22.417Z,-2.33
2016-11-14T01:52:32.519Z,-2.29
2016-11-14T01:53:42.918Z,-2.48
2016-11-14T01:54:52.911Z,-2.28
2016-11-14T01:56:02.922Z,-2.37
2016-11-14T01:57:12.974Z,-2.36
2016-11-14T01:58:22.975Z,-2.47
2016-11-14T01:59:32.450Z,-2.47
2016-11-14T02:00:42.759Z,-2.55
2016-11-14T02:01:52.431Z,-2.62
2016-11-14T02:03:02.184Z,-2.61
2016-11-14T02:04:11.879Z,-2.63
2016-11-14T02:05:21.929Z,-2.65
2016-11-14T02:06:32.218Z,-2.69
2016-11-14T02:07:42.628Z,-2.75
2016-11-14T02:08:52.709Z,-2.76
2016-11-14T02:10:02.904Z,-2.78
2016-11-14T02:11:13.337Z,-2.7
2016-11-14T02:12:23.023Z,-2.75
2016-11-14T02:13:33.070Z,-2.81
2016-11-14T02:14:43.128Z,-2.78
2016-11-14T02:15:52.829Z,-2.75
2016-11-14T02:17:02.203Z,-2.86
2016-11-14T02:18:11.891Z,-2.8
2016-11-14T02:19:22.229Z,-2.84
2016-11-14T02:20:32.258Z,-2.76
2016-11-14T02:21:41.671Z,-2.83
2016-11-14T02:22:52.119Z,-2.84
2016-11-14T02:24:01.503Z,-2.86
2016-11-14T02:25:11.510Z,-2.81
2016-11-14T02:26:21.333Z,-2.73
2016-11-14T02:27:31.338Z,-2.76
2016-11-14T02:28:41.719Z,-2.72
2016-11-14T02:29:51.730Z,-2.73
2016-11-14T02:31:02.149Z,-2.8
2016-11-14T02:32:12.149Z,-2.75
2016-11-14T02:33:22.254Z,-2.78
2016-11-14T02:34:32.860Z,-2.73
2016-11-14T02:35:42.860Z,-2.8
2016-11-14T02:36:52.538Z,-2.65
2016-11-14T02:38:02.235Z,-2.63
2016-11-14T02:39:12.338Z,-2.55
2016-11-14T02:40:22.458Z,-2.65
2016-11-14T02:41:32.467Z,-2.72
2016-11-14T02:42:42.772Z,-2.69
2016-11-14T02:43:52.518Z,-2.68
2016-11-14T02:45:02.227Z,-2.62
2016-11-14T02:46:11.598Z,-2.62
2016-11-14T02:47:21.385Z,-2.66
2016-11-14T02:48:31.737Z,-2.73
2016-11-14T02:49:41.429Z,-2.78
2016-11-14T02:50:51.147Z,-2.73
2016-11-14T02:52:01.201Z,-2.78
2016-11-14T02:53:10.593Z,-2.69
2016-11-14T02:54:20.588Z,-2.69
2016-11-14T02:55:30.732Z,-2.78
2016-11-14T02:56:40.116Z,-2.76
2016-11-14T02:57:50.172Z,-2.78
2016-11-14T02:59:00.477Z,-2.75
2016-11-14T03:00:10.476Z,-2.81
2016-11-14T03:01:20.152Z,-2.89
2016-11-14T03:02:30.488Z,-2.8
2016-11-14T03:03:40.812Z,-2.84
2016-11-14T03:04:50.926Z,-2.83
2016-11-14T03:06:01.084Z,-2.86
2016-11-14T03:07:10.166Z,-2.87
2016-11-14T03:08:19.845Z,-2.89
2016-11-14T03:09:29.849Z,-2.89
2016-11-14T03:10:39.547Z,-2.76
2016-11-14T03:11:49.859Z,-2.75
2016-11-14T03:13:00.173Z,-2.76
2016-11-14T03:14:09.557Z,-2.8
2016-11-14T03:15:19.696Z,-2.9
2016-11-14T03:16:29.875Z,-2.86
2016-11-14T03:17:39.909Z,-2.9
2016-11-14T03:18:49.938Z,-2.86
2016-11-14T03:19:59.309Z,-2.98
2016-11-14T03:21:09.325Z,-2.99
2016-11-14T03:22:18.745Z,-2.94
2016-11-14T03:23:28.797Z,-2.87
2016-11-14T03:24:38.594Z,-2.86
2016-11-14T03:25:47.983Z,-2.91
2016-11-14T03:26:57.992Z,-2.96
2016-11-14T03:28:07.746Z,-2.83
2016-11-14T03:29:17.453Z,-2.9
2016-11-14T03:30:27.156Z,-3.05
2016-11-14T03:31:36.918Z,-2.98
2016-11-14T03:32:46.592Z,-2.94
2016-11-14T03:33:56.697Z,-2.89
2016-11-14T03:35:06.788Z,-2.9
2016-11-14T03:36:16.788Z,-2.9
2016-11-14T03:37:27.099Z,-3.02
2016-11-14T03:38:37.538Z,-3.04
2016-11-14T03:39:47.880Z,-3.04
2016-11-14T03:40:56.947Z,-3.07
2016-11-14T03:42:06.659Z,-3.05
2016-11-14T03:43:16.333Z,-3.19
2016-11-14T03:44:26.068Z,-3.12
2016-11-14T03:45:35.467Z,-3.04
2016-11-14T03:46:45.458Z,-3.2
2016-11-14T03:47:55.472Z,-3.15
2016-11-14T03:49:05.485Z,-3.01
2016-11-14T03:50:15.539Z,-3.07
2016-11-14T03:51:25.015Z,-2.98
2016-11-14T03:52:35.061Z,-3.08
2016-11-14T03:53:44.900Z,-3.05
2016-11-14T03:54:55.005Z,-3.15
2016-11-14T03:56:05.048Z,-3.09
2016-11-14T03:57:15.353Z,-3.14
2016-11-14T03:58:25.405Z,-3.08
2016-11-14T03:59:35.085Z,-3.01
2016-11-14T04:00:45.078Z,-3.04
2016-11-14T04:01:55.179Z,-3.02
2016-11-14T04:03:05.188Z,-2.99
2016-11-14T04:04:14.567Z,-3.15
2016-11-14T04:05:24.568Z,-3.11
2016-11-14T04:06:34.638Z,-3.17
2016-11-14T04:07:44.321Z,-3.12
2016-11-14T04:08:54.068Z,-3.01
2016-11-14T04:10:04.231Z,-3.15
2016-11-14T04:11:14.451Z,-3.09
2016-11-14T04:12:24.209Z,-3.02
2016-11-14T04:13:33.640Z,-3.07
2016-11-14T04:14:43.809Z,-3.15
2016-11-14T04:15:53.857Z,-3.07
2016-11-14T04:17:03.613Z,-3.02
2016-11-14T04:18:13.308Z,-3.22
2016-11-14T04:19:23.185Z,-3.14
2016-11-14T04:20:32.880Z,-3.08
2016-11-14T04:21:43.049Z,-3.08
2016-11-14T04:22:52.435Z,-3.15
2016-11-14T04:24:02.430Z,-3.09
2016-11-14T04:25:12.151Z,-3.12
2016-11-14T04:26:22.556Z,-3.15
2016-11-14T04:27:32.260Z,-3.02
2016-11-14T04:28:41.648Z,-3.09
2016-11-14T04:29:52.005Z,-3.08
2016-11-14T04:31:02.375Z,-3.09
2016-11-14T04:32:12.376Z,-3.02
2016-11-14T04:33:22.069Z,-3.08
2016-11-14T04:34:32.131Z,-3.2
2016-11-14T04:35:42.198Z,-3.12
2016-11-14T04:36:51.924Z,-3.09
2016-11-14T04:38:01.944Z,-3.11
2016-11-14T04:39:12.032Z,-3.05
2016-11-14T04:40:21.719Z,-3.04
2016-11-14T04:41:31.509Z,-3.02
2016-11-14T04:42:41.555Z,-3.04
2016-11-14T04:43:51.913Z,-3.15
2016-11-14T04:45:01.639Z,-3.2
2016-11-14T04:46:11.650Z,-3.23
2016-11-14T04:47:22.119Z,-3.26
2016-11-14T04:48:32.131Z,-3.27
2016-11-14T04:49:42.525Z,-3.19
2016-11-14T04:50:52.877Z,-3.2
2016-11-14T04:52:02.962Z,-3.04
2016-11-14T04:53:13.281Z,-3.04
2016-11-14T04:54:23.381Z,-3.15
2016-11-14T04:55:33.751Z,-3.01
2016-11-14T04:56:43.861Z,-3.17
2016-11-14T04:57:54.196Z,-3.05
2016-11-14T04:59:04.557Z,-3.11
2016-11-14T05:00:14.589Z,-3.19
2016-11-14T05:01:24.921Z,-3.22
2016-11-14T05:02:34.924Z,-3.23
2016-11-14T05:03:44.653Z,-3.29
2016-11-14T05:04:54.596Z,-3.29
2016-11-14T05:06:04.597Z,-3.3
2016-11-14T05:07:14.298Z,-3.23
2016-11-14T05:08:24.190Z,-3.33
2016-11-14T05:09:33.805Z,-3.15
2016-11-14T05:10:44.201Z,-3.27
2016-11-14T05:11:54.297Z,-3.22
2016-11-14T05:13:04.428Z,-3.22
2016-11-14T05:14:13.818Z,-3.26
2016-11-14T05:15:23.918Z,-3.29
2016-11-14T05:16:34.306Z,-3.32
2016-11-14T05:17:44.910Z,-3.38
2016-11-14T05:18:54.599Z,-3.29
2016-11-14T05:20:04.641Z,-3.4
2016-11-14T05:21:14.964Z,-3.38
2016-11-14T05:22:25.054Z,-3.41
2016-11-14T05:23:35.366Z,-3.38
2016-11-14T05:24:45.075Z,-3.32
2016-11-14T05:25:55.140Z,-3.44
2016-11-14T05:27:05.438Z,-3.32
2016-11-14T05:28:16.016Z,-3.32
2016-11-14T05:29:26.070Z,-3.33
2016-11-14T05:30:35.782Z,-3.3
2016-11-14T05:31:45.822Z,-3.33
2016-11-14T05:32:55.841Z,-3.27
2016-11-14T05:34:05.876Z,-3.22
2016-11-14T05:35:15.875Z,-3.29
2016-11-14T05:36:26.014Z,-3.25
2016-11-14T05:37:35.737Z,-3.26
2016-11-14T05:38:46.068Z,-3.37
2016-11-14T05:39:55.443Z,-3.26
2016-11-14T05:41:04.917Z,-3.22
2016-11-14T05:42:14.650Z,-3.27
2016-11-14T05:43:25.066Z,-3.25
2016-11-14T05:44:35.257Z,-3.29
2016-11-14T05:45:45.568Z,-3.23
2016-11-14T05:46:56.010Z,-3.22
2016-11-14T05:48:05.994Z,-3.25
2016-11-14T05:49:16.381Z,-3.38
2016-11-14T05:50:26.569Z,-3.33
2016-11-14T05:51:36.869Z,-3.41
2016-11-14T05:52:46.249Z,-3.38
2016-11-14T05:53:56.269Z,-3.37
2016-11-14T05:55:06.269Z,-3.44
2016-11-14T05:56:16.418Z,-3.43
2016-11-14T05:57:26.746Z,-3.38
2016-11-14T05:58:37.045Z,-3.29
2016-11-14T05:59:47.110Z,-3.41
2016-11-14T06:00:57.464Z,-3.37
2016-11-14T06:02:06.707Z,-3.41
2016-11-14T06:03:16.854Z,-3.38
2016-11-14T06:04:26.078Z,-3.36
2016-11-14T06:05:36.392Z,-3.29
2016-11-14T06:06:46.080Z,-3.29
2016-11-14T06:07:55.763Z,-3.36
2016-11-14T06:09:05.867Z,-3.36
2016-11-14T06:10:15.901Z,-3.38
2016-11-14T06:11:25.972Z,-3.37
2016-11-14T06:12:36.008Z,-3.36
2016-11-14T06:13:46.009Z,-3.29
2016-11-14T06:14:55.429Z,-3.32
2016-11-14T06:16:05.541Z,-3.22
2016-11-14T06:17:15.566Z,-3.22
2016-11-14T06:18:25.592Z,-3.29
2016-11-14T06:19:35.661Z,-3.32
2016-11-14T06:20:45.382Z,-3.33
2016-11-14T06:21:55.785Z,-3.29
2016-11-14T06:23:05.853Z,-3.32
2016-11-14T06:24:15.532Z,-3.32
2016-11-14T06:25:25.586Z,-3.29
2016-11-14T06:26:35.269Z,-3.32
2016-11-14T06:27:44.957Z,-3.22
2016-11-14T06:28:55.014Z,-3.23
2016-11-14T06:30:05.330Z,-3.22
2016-11-14T06:31:15.438Z,-3.23
2016-11-14T06:32:25.972Z,-3.17
2016-11-14T06:33:35.664Z,-3.2
2016-11-14T06:34:46.019Z,-3.19
2016-11-14T06:35:56.329Z,-3.15
2016-11-14T06:37:06.328Z,-3.23
2016-11-14T06:38:16.648Z,-3.15
2016-11-14T06:39:26.408Z,-3.08
2016-11-14T06:40:36.417Z,-3.2
2016-11-14T06:41:46.439Z,-3.2
2016-11-14T06:42:56.756Z,-3.22
2016-11-14T06:44:07.091Z,-3.23
2016-11-14T06:45:17.179Z,-3.19
2016-11-14T06:46:27.229Z,-3.2
2016-11-14T06:47:37.270Z,-3.23
2016-11-14T06:48:46.958Z,-3.15
2016-11-14T06:49:57.280Z,-3.19
2016-11-14T06:51:07.460Z,-3.19
2016-11-14T06:52:17.508Z,-3.14
2016-11-14T06:53:26.734Z,-3.09
2016-11-14T06:54:35.836Z,-3.12
2016-11-14T06:55:46.158Z,-3.05
2016-11-14T06:56:56.591Z,-3.09
2016-11-14T06:58:06.609Z,-3.11
2016-11-14T06:59:16.916Z,-3.11
2016-11-14T07:00:27.009Z,-3.04
2016-11-14T07:01:37.098Z,-3.08
2016-11-14T07:02:47.146Z,-3.02
2016-11-14T07:03:57.545Z,-3.12
2016-11-14T07:05:07.233Z,-3.04
2016-11-14T07:06:17.593Z,-3.04
2016-11-14T07:07:27.593Z,-2.94
2016-11-14T07:08:37.787Z,-2.9
2016-11-14T07:09:47.809Z,-3.01
2016-11-14T07:10:57.508Z,-2.94
2016-11-14T07:12:08.118Z,-2.93
2016-11-14T07:13:18.419Z,-2.86
2016-11-14T07:14:28.754Z,-2.94
2016-11-14T07:15:38.439Z,-2.81
2016-11-14T07:16:48.143Z,-2.86
2016-11-14T07:17:58.289Z,-2.84
2016-11-14T07:19:08.421Z,-2.76
2016-11-14T07:20:18.439Z,-2.76
2016-11-14T07:21:28.131Z,-2.81
2016-11-14T07:22:38.450Z,-2.75
2016-11-14T07:23:48.777Z,-2.73
2016-11-14T07:24:58.460Z,-2.62
2016-11-14T07:26:08.809Z,-2.68
2016-11-14T07:27:19.121Z,-2.54
2016-11-14T07:28:29.230Z,-2.54
2016-11-14T07:29:38.608Z,-2.5
2016-11-14T07:30:48.065Z,-2.42
2016-11-14T07:31:58.070Z,-2.37
2016-11-14T07:33:08.097Z,-2.42
2016-11-14T07:34:18.123Z,-2.29
2016-11-14T07:35:27.932Z,-2.25
2016-11-14T07:36:37.313Z,-2.18
2016-11-14T07:37:47.356Z,-2.17
2016-11-14T07:38:57.790Z,-2.14
2016-11-14T07:40:08.181Z,-1.99
2016-11-14T07:41:17.897Z,-1.99
2016-11-14T07:42:27.897Z,-1.99
2016-11-14T07:43:38.219Z,-1.93
2016-11-14T07:44:47.601Z,-1.9
2016-11-14T07:45:58.245Z,-1.79
2016-11-14T07:47:07.637Z,-1.79
2016-11-14T07:48:18.103Z,-1.76
2016-11-14T07:49:28.053Z,-1.76
2016-11-14T07:50:38.363Z,-1.57
2016-11-14T07:51:48.080Z,-1.54
2016-11-14T07:52:58.132Z,-1.43
2016-11-14T07:54:07.888Z,-1.36
2016-11-14T07:55:17.737Z,-1.39
2016-11-14T07:56:27.787Z,-1.25
2016-11-14T07:57:38.148Z,-1.3
2016-11-14T07:58:48.181Z,-1.12
2016-11-14T07:59:58.280Z,-1.24
2016-11-14T08:01:07.767Z,-1.09
2016-11-14T08:02:17.889Z,-1.04
2016-11-14T08:03:28.228Z,-1.12
2016-11-14T08:04:38.327Z,-1.04
2016-11-14T08:05:48.654Z,-1.03
2016-11-14T08:06:58.968Z,-0.94
2016-11-14T08:08:09.397Z,-0.89
2016-11-14T08:09:19.442Z,-0.81
2016-11-14T08:10:29.609Z,-0.75
2016-11-14T08:11:40.015Z,-0.75
2016-11-14T08:12:50.051Z,-0.74
2016-11-14T08:14:00.370Z,-0.69
2016-11-14T08:15:10.698Z,-0.72
2016-11-14T08:16:20.710Z,-0.69
2016-11-14T08:17:30.511Z,-0.7
2016-11-14T08:18:40.387Z,-0.64
2016-11-14T08:19:50.107Z,-0.69
2016-11-14T08:21:00.429Z,-0.62
2016-11-14T08:22:10.430Z,-0.67
2016-11-14T08:23:20.132Z,-0.6
2016-11-14T08:24:29.214Z,-0.72
2016-11-14T08:25:39.259Z,-0.6
2016-11-14T08:26:48.966Z,-0.74
2016-11-14T08:27:59.369Z,-0.7
2016-11-14T08:29:09.688Z,-0.63
2016-11-14T08:30:19.712Z,-0.57
2016-11-14T08:31:29.146Z,-0.53
2016-11-14T08:32:38.833Z,-0.42
2016-11-14T08:33:48.219Z,-0.3
2016-11-14T08:34:58.066Z,-0.3
2016-11-14T08:36:08.168Z,-0.1
2016-11-14T08:37:18.306Z,-0.02
2016-11-14T08:38:28.001Z,0.16
2016-11-14T08:39:37.984Z,0.24
2016-11-14T08:40:48.451Z,0.37
2016-11-14T08:41:58.472Z,0.48
2016-11-14T08:43:08.498Z,0.74
2016-11-14T08:44:17.588Z,0.78
2016-11-14T08:45:27.949Z,1.02
2016-11-14T08:46:38.482Z,1.06
2016-11-14T08:47:48.797Z,1.06
2016-11-14T08:48:58.568Z,1.18
2016-11-14T08:50:08.278Z,1.24
2016-11-14T08:51:18.289Z,1.24
2016-11-14T08:52:28.369Z,1.36
2016-11-14T08:53:38.217Z,1.4
2016-11-14T08:54:48.245Z,1.4
2016-11-14T08:55:58.229Z,1.5
2016-11-14T08:57:07.619Z,1.49
2016-11-14T08:58:17.724Z,1.46
2016-11-14T08:59:28.056Z,1.57
2016-11-14T09:00:37.749Z,1.53
2016-11-14T09:01:47.142Z,1.66
2016-11-14T09:02:56.516Z,1.7
2016-11-14T09:04:06.038Z,1.75
2016-11-14T09:05:15.778Z,1.76
2016-11-14T09:06:25.816Z,1.76
2016-11-14T09:07:34.967Z,1.84
2016-11-14T09:08:45.026Z,1.75
2016-11-14T09:09:55.198Z,1.81
2016-11-14T09:11:04.930Z,1.86
2016-11-14T09:12:14.630Z,1.82
2016-11-14T09:13:24.637Z,1.82
2016-11-14T09:14:34.638Z,1.78
2016-11-14T09:15:44.358Z,1.79
2016-11-14T09:16:54.378Z,1.82
2016-11-14T09:18:04.109Z,1.81
2016-11-14T09:19:13.474Z,1.95
2016-11-14T09:20:23.226Z,1.97
2016-11-14T09:21:32.919Z,2.08
2016-11-14T09:22:43.303Z,2.15
2016-11-14T09:23:52.397Z,2.18
2016-11-14T09:25:01.795Z,2.19
2016-11-14T09:26:11.491Z,2.19
2016-11-14T09:27:21.174Z,2.16
2016-11-14T09:28:31.184Z,2.19
2016-11-14T09:29:40.864Z,2.28
2016-11-14T09:30:51.301Z,2.32
2016-11-14T09:32:01.341Z,2.39
2016-11-14T09:33:11.463Z,2.44
2016-11-14T09:34:21.232Z,2.51
2016-11-14T09:35:30.837Z,2.55
2016-11-14T09:36:40.536Z,2.55
2016-11-14T09:37:49.927Z,2.64
2016-11-14T09:38:59.543Z,2.62
2016-11-14T09:40:08.957Z,2.73
2016-11-14T09:41:18.967Z,2.72
2016-11-14T09:42:28.338Z,2.83
2016-11-14T09:43:37.709Z,2.82
2016-11-14T09:44:47.168Z,2.79
2016-11-14T09:45:56.906Z,2.7
2016-11-14T09:47:06.310Z,2.83
2016-11-14T09:48:16.336Z,2.75
2016-11-14T09:49:26.449Z,2.82
2016-11-14T09:50:36.159Z,2.87
2016-11-14T09:51:46.349Z,2.94
2016-11-14T09:52:55.823Z,2.98
2016-11-14T09:54:06.048Z,3.03
2016-11-14T09:55:15.760Z,3.05
2016-11-14T09:56:25.266Z,3.13
2016-11-14T09:57:35.839Z,3.22
2016-11-14T09:58:45.230Z,3.19
2016-11-14T09:59:55.867Z,3.26
2016-11-14T10:01:05.705Z,3.22
2016-11-14T10:02:15.664Z,3.21
2016-11-14T10:03:25.948Z,3.3
2016-11-14T10:04:36.609Z,3.37
2016-11-14T10:05:46.931Z,3.37
2016-11-14T10:06:56.618Z,3.43
2016-11-14T10:08:06.304Z,3.52
2016-11-14T10:09:16.516Z,3.58
2016-11-14T10:10:26.306Z,3.61
2016-11-14T10:11:36.175Z,3.67
2016-11-14T10:12:46.588Z,3.74
2016-11-14T10:13:55.947Z,3.7
2016-11-14T10:15:05.335Z,3.73
2016-11-14T10:16:15.381Z,3.82
2016-11-14T10:17:25.201Z,3.88
2016-11-14T10:18:35.229Z,3.92
2016-11-14T10:19:45.219Z,3.89
2016-11-14T10:20:55.326Z,3.88
2016-11-14T10:22:05.038Z,3.94
2016-11-14T10:23:15.047Z,3.94
2016-11-14T10:24:25.108Z,3.99
2016-11-14T10:25:34.929Z,4.07
2016-11-14T10:26:44.989Z,4
2016-11-14T10:27:54.375Z,4.03
2016-11-14T10:29:04.377Z,4.03
2016-11-14T10:30:14.109Z,4.13
2016-11-14T10:31:23.814Z,4.24
2016-11-14T10:32:32.667Z,4.27
2016-11-14T10:33:42.510Z,4.34
2016-11-14T10:34:52.328Z,4.34
2016-11-14T10:36:02.379Z,4.34
2016-11-14T10:37:12.435Z,4.48
2016-11-14T10:38:22.118Z,4.66
2016-11-14T10:39:31.813Z,4.63
2016-11-14T10:40:42.189Z,4.68
2016-11-14T10:41:51.939Z,4.95
2016-11-14T10:43:02.011Z,4.87
2016-11-14T10:44:12.029Z,4.94
2016-11-14T10:45:22.358Z,5.1
2016-11-14T10:46:32.677Z,5.19
2016-11-14T10:47:42.726Z,5.38
2016-11-14T10:50:02.147Z,5.61
2016-11-14T10:51:12.547Z,5.64
2016-11-14T10:52:22.559Z,5.81
2016-11-14T10:53:32.349Z,5.97
2016-11-14T10:54:42.670Z,6.12
2016-11-14T10:55:52.757Z,6.26
2016-11-14T10:57:03.067Z,6.17
2016-11-14T10:58:13.394Z,6.29
2016-11-14T10:59:23.418Z,6.41
2016-11-14T11:00:32.811Z,6.39
2016-11-14T11:01:42.241Z,6.31
2016-11-14T11:02:52.067Z,6.35
2016-11-14T11:04:01.791Z,6.22
2016-11-14T11:05:12.127Z,6.1
2016-11-14T11:06:21.824Z,6.06
2016-11-14T11:07:31.828Z,6.06
2016-11-14T11:08:41.587Z,6.06
2016-11-14T11:09:51.762Z,6.12
2016-11-14T11:11:01.772Z,6.09
2016-11-14T11:12:12.083Z,6.09
2016-11-14T11:13:22.212Z,6.12
2016-11-14T11:14:31.671Z,6.19
2016-11-14T11:15:41.093Z,6.16
2016-11-14T11:16:51.134Z,6.12
2016-11-14T11:18:00.519Z,6.2
2016-11-14T11:19:10.295Z,6.25
2016-11-14T11:20:20.614Z,6.31
2016-11-14T11:21:30.329Z,6.32
2016-11-14T11:22:40.356Z,6.34
2016-11-14T11:23:50.049Z,6.19
2016-11-14T11:25:00.064Z,6.25
2016-11-14T11:26:10.495Z,6.26
2016-11-14T11:27:20.265Z,6.36
2016-11-14T11:28:30.291Z,6.35
2016-11-14T11:29:39.725Z,6.54
2016-11-14T11:30:49.734Z,6.43
2016-11-14T11:31:59.209Z,6.35
2016-11-14T11:33:09.076Z,6.2
2016-11-14T11:34:19.084Z,6.17
2016-11-14T11:35:28.985Z,6.16
2016-11-14T11:36:38.899Z,6.26
2016-11-14T11:37:48.959Z,6.09
2016-11-14T11:38:59.303Z,6.02
2016-11-14T11:40:09.329Z,6.13
2016-11-14T11:41:19.729Z,6.25
2016-11-14T11:42:29.508Z,6.13
2016-11-14T11:43:39.902Z,6.31
2016-11-14T11:44:49.671Z,6.28
2016-11-14T11:45:59.668Z,6.25
2016-11-14T11:47:09.699Z,6.2
2016-11-14T11:48:20.070Z,6.32
2016-11-14T11:49:30.123Z,6.28
2016-11-14T11:50:39.836Z,6.43
2016-11-14T11:51:50.067Z,6.5
2016-11-14T11:52:59.815Z,6.56
2016-11-14T11:54:09.874Z,6.62
2016-11-14T11:55:19.572Z,6.64
2016-11-14T11:56:29.932Z,6.68
2016-11-14T11:57:40.262Z,6.67
2016-11-14T11:58:50.358Z,6.6
2016-11-14T12:00:00.726Z,6.49
2016-11-14T12:01:10.488Z,6.54
2016-11-14T12:02:20.499Z,6.53
2016-11-14T12:03:30.195Z,6.41
2016-11-14T12:04:40.561Z,6.43
2016-11-14T12:05:50.572Z,6.5
2016-11-14T12:07:00.574Z,6.56
2016-11-14T12:08:10.468Z,6.38
2016-11-14T12:09:20.786Z,6.44
2016-11-14T12:10:30.798Z,6.49
2016-11-14T12:11:40.658Z,6.39
2016-11-14T12:12:50.668Z,6.44
2016-11-14T12:14:00.404Z,6.34
2016-11-14T12:15:09.794Z,6.31
2016-11-14T12:16:19.167Z,6.28
2016-11-14T12:17:30.008Z,6.22
2016-11-14T12:18:39.716Z,6.34
2016-11-14T12:19:49.786Z,6.39
2016-11-14T12:20:59.919Z,6.38
2016-11-14T12:22:10.256Z,6.43
2016-11-14T12:23:20.271Z,6.28
2016-11-14T12:24:30.391Z,6.29
2016-11-14T12:25:40.381Z,6.26
2016-11-14T12:26:49.799Z,6.28
2016-11-14T12:28:00.253Z,6.32
2016-11-14T12:29:10.238Z,6.31
2016-11-14T12:30:19.952Z,6.28
2016-11-14T12:31:29.648Z,6.32
2016-11-14T12:32:39.992Z,6.39
2016-11-14T12:33:49.377Z,6.36
2016-11-14T12:34:59.599Z,6.35
2016-11-14T12:36:09.315Z,6.36
2016-11-14T12:37:19.296Z,6.28
2016-11-14T12:38:29.359Z,6.28
2016-11-14T12:39:39.413Z,6.43
2016-11-14T12:40:49.123Z,6.41
2016-11-14T12:41:59.140Z,6.53
2016-11-14T12:43:09.157Z,6.47
2016-11-14T12:44:18.232Z,6.56
2016-11-14T12:45:28.061Z,6.43
2016-11-14T12:46:38.389Z,6.32
2016-11-14T12:47:48.698Z,6.32
2016-11-14T12:48:59.087Z,6.34
2016-11-14T12:50:08.477Z,6.28
2016-11-14T12:51:18.803Z,6.17
2016-11-14T12:52:28.829Z,6.1
2016-11-14T12:53:38.647Z,6.13
2016-11-14T12:54:49.012Z,6.07
2016-11-14T12:55:59.336Z,6.26
2016-11-14T12:57:09.347Z,6.15
2016-11-14T12:58:19.704Z,6.13
2016-11-14T12:59:29.519Z,6.19
2016-11-14T13:00:39.512Z,6.19
2016-11-14T13:01:50.368Z,6.2
2016-11-14T13:03:00.467Z,6.31
2016-11-14T13:04:10.777Z,6.29
2016-11-14T13:05:20.635Z,6.28
2016-11-14T13:06:30.344Z,6.28
2016-11-14T13:07:40.674Z,6.32
2016-11-14T13:08:50.103Z,6.34
2016-11-14T13:09:59.807Z,6.39
2016-11-14T13:11:09.926Z,6.41
2016-11-14T13:12:19.957Z,6.41
2016-11-14T13:13:29.666Z,6.5
2016-11-14T13:14:39.497Z,6.53
2016-11-14T13:15:50.454Z,6.59
2016-11-14T13:17:00.788Z,6.54
2016-11-14T13:18:11.107Z,6.49
2016-11-14T13:19:20.937Z,6.39
2016-11-14T13:20:30.800Z,6.44
2016-11-14T13:21:40.798Z,6.54
2016-11-14T13:22:51.116Z,6.56
2016-11-14T13:24:01.425Z,6.52
2016-11-14T13:25:11.615Z,6.49
2016-11-14T13:26:21.364Z,6.44
2016-11-14T13:27:31.437Z,6.52
2016-11-14T13:28:41.886Z,6.62
2016-11-14T13:29:51.898Z,6.5
2016-11-14T13:31:02.387Z,6.46
2016-11-14T13:32:12.395Z,6.39
2016-11-14T13:33:22.503Z,6.36
2016-11-14T13:34:32.617Z,6.22
2016-11-14T13:35:42.928Z,6.2
2016-11-14T13:36:53.034Z,6.19
2016-11-14T13:38:02.731Z,6.22
2016-11-14T13:39:12.737Z,6.26
2016-11-14T13:40:22.800Z,6.15
2016-11-14T13:41:33.135Z,6.16
2016-11-14T13:42:42.971Z,6.05
2016-11-14T13:43:52.686Z,6.15
2016-11-14T13:45:02.406Z,6.12
2016-11-14T13:46:12.499Z,6.05
2016-11-14T13:47:22.315Z,6.1
2016-11-14T13:48:32.374Z,6.06
2016-11-14T13:49:42.935Z,6.07
2016-11-14T13:50:52.684Z,6.1
2016-11-14T13:52:02.693Z,6.09
2016-11-14T13:53:12.476Z,6.01
2016-11-14T13:54:22.320Z,5.94
2016-11-14T13:55:32.345Z,5.97
2016-11-14T13:56:42.751Z,5.94
2016-11-14T13:57:52.857Z,5.92
2016-11-14T13:59:02.934Z,5.91
2016-11-14T14:00:13.266Z,5.91
2016-11-14T14:01:23.715Z,5.79
2016-11-14T14:02:33.425Z,5.65
2016-11-14T14:03:43.412Z,5.69
2016-11-14T14:04:53.859Z,5.77
2016-11-14T14:06:03.270Z,5.73
2016-11-14T14:07:13.303Z,5.77
2016-11-14T14:08:23.338Z,5.76
2016-11-14T14:09:32.772Z,5.72
2016-11-14T14:10:43.134Z,5.72
2016-11-14T14:11:52.956Z,5.62
2016-11-14T14:13:03.046Z,5.69
2016-11-14T14:14:12.123Z,5.69
2016-11-14T14:15:22.168Z,5.62
2016-11-14T14:16:32.166Z,5.69
2016-11-14T14:17:42.716Z,5.67
2016-11-14T14:18:52.770Z,5.49
2016-11-14T14:20:02.539Z,5.54
2016-11-14T14:21:12.876Z,5.52
2016-11-14T14:22:22.653Z,5.47
2016-11-14T14:23:33.042Z,5.47
2016-11-14T14:24:43.045Z,5.47
2016-11-14T14:25:53.117Z,5.41
2016-11-14T14:27:02.897Z,5.43
2016-11-14T14:28:13.055Z,5.55
2016-11-14T14:29:23.395Z,5.47
2016-11-14T14:30:32.789Z,5.34
2016-11-14T14:31:42.827Z,5.44
2016-11-14T14:32:53.013Z,5.43
2016-11-14T14:34:02.812Z,5.36
2016-11-14T14:35:12.841Z,5.37
2016-11-14T14:36:22.673Z,5.36
2016-11-14T14:37:32.702Z,5.38
2016-11-14T14:38:42.809Z,5.26
2016-11-14T14:39:53.154Z,5.34
2016-11-14T14:41:03.487Z,5.28
2016-11-14T14:42:13.494Z,5.25
2016-11-14T14:43:23.513Z,5.26
2016-11-14T14:44:33.546Z,5.23
2016-11-14T14:45:43.941Z,5.2
2016-11-14T14:46:53.974Z,5.19
2016-11-14T14:48:03.985Z,5.15
2016-11-14T14:49:14.089Z,5.12
2016-11-14T14:50:23.534Z,5.2
2016-11-14T14:51:33.924Z,5.1
2016-11-14T14:52:44.276Z,5.15
2016-11-14T14:53:54.650Z,5.15
2016-11-14T14:55:05.254Z,5.07
2016-11-14T14:56:14.959Z,5.05
2016-11-14T14:57:25.304Z,5.13
2016-11-14T14:58:34.993Z,5
2016-11-14T14:59:44.707Z,5.08
2016-11-14T15:00:54.782Z,5.04
2016-11-14T15:02:05.313Z,4.97
2016-11-14T15:03:15.353Z,4.98
2016-11-14T15:04:25.286Z,5.01
2016-11-14T15:05:35.706Z,4.86
2016-11-14T15:06:45.445Z,4.92
2016-11-14T15:07:55.467Z,4.92
2016-11-14T15:09:05.576Z,4.87
2016-11-14T15:10:15.293Z,4.9
2016-11-14T15:11:25.062Z,4.89
2016-11-14T15:12:34.759Z,4.89
2016-11-14T15:13:45.352Z,4.95
2016-11-14T15:14:55.691Z,4.92
2016-11-14T15:16:05.832Z,4.95
2016-11-14T15:17:15.542Z,4.94
2016-11-14T15:18:25.606Z,4.94